sensor_id;sensor_type;location;lat;lon;timestamp;temperature;humidity
71184;DHT22;58887;51.980;4.464;2023-02-28T00:02:42;3.44;76.19
71184;DHT22;58887;51.980;4.464;2023-02-28T00:05:15;3.48;76.10
71184;DHT22;58887;51.980;4.464;2023-02-28T00:07:41;3.53;75.74
71184;DHT22;58887;51.980;4.464;2023-02-28T00:10:35;3.57;75.83
71184;DHT22;58887;51.980;4.464;2023-02-28T00:13:24;3.64;75.96
71184;DHT22;58887;51.980;4.464;2023-02-28T00:16:02;3.64;76.30
71184;DHT22;58887;51.980;4.464;2023-02-28T00:18:30;3.73;76.24
71184;DHT22;58887;51.980;4.464;2023-02-28T00:20:56;3.71;76.28
71184;DHT22;58887;51.980;4.464;2023-02-28T00:23:26;3.82;76.49
71184;DHT22;58887;51.980;4.464;2023-02-28T00:25:54;3.94;76.12
71184;DHT22;58887;51.980;4.464;2023-02-28T00:28:20;4.02;75.98
71184;DHT22;58887;51.980;4.464;2023-02-28T00:30:48;3.88;76.05
71184;DHT22;58887;51.980;4.464;2023-02-28T00:33:16;3.92;76.45
71184;DHT22;58887;51.980;4.464;2023-02-28T00:36:09;4.02;76.38
71184;DHT22;58887;51.980;4.464;2023-02-28T00:38:50;4.13;76.23
71184;DHT22;58887;51.980;4.464;2023-02-28T00:41:20;4.30;75.75
71184;DHT22;58887;51.980;4.464;2023-02-28T00:43:48;4.29;75.54
71184;DHT22;58887;51.980;4.464;2023-02-28T00:46:17;4.32;75.50
71184;DHT22;58887;51.980;4.464;2023-02-28T00:48:53;4.30;75.50
71184;DHT22;58887;51.980;4.464;2023-02-28T00:51:24;4.36;75.36
71184;DHT22;58887;51.980;4.464;2023-02-28T00:53:53;4.39;75.29
71184;DHT22;58887;51.980;4.464;2023-02-28T00:56:22;4.40;75.14
71184;DHT22;58887;51.980;4.464;2023-02-28T00:58:48;4.47;75.10
71184;DHT22;58887;51.980;4.464;2023-02-28T01:01:14;4.50;74.90
71184;DHT22;58887;51.980;4.464;2023-02-28T01:03:40;4.58;74.85
71184;DHT22;58887;51.980;4.464;2023-02-28T01:06:06;4.57;74.71
71184;DHT22;58887;51.980;4.464;2023-02-28T01:08:33;4.57;74.70
71184;DHT22;58887;51.980;4.464;2023-02-28T01:11:08;4.63;74.60
71184;DHT22;58887;51.980;4.464;2023-02-28T01:13:46;4.68;74.41
71184;DHT22;58887;51.980;4.464;2023-02-28T01:16:12;4.73;74.16
71184;DHT22;58887;51.980;4.464;2023-02-28T01:18:41;4.70;74.25
71184;DHT22;58887;51.980;4.464;2023-02-28T01:21:11;4.71;74.22
71184;DHT22;58887;51.980;4.464;2023-02-28T01:23:38;4.71;74.37
71184;DHT22;58887;51.980;4.464;2023-02-28T01:26:13;4.71;74.35
71184;DHT22;58887;51.980;4.464;2023-02-28T01:28:46;4.74;74.33
71184;DHT22;58887;51.980;4.464;2023-02-28T01:31:13;4.78;74.30
71184;DHT22;58887;51.980;4.464;2023-02-28T01:33:39;4.88;73.96
71184;DHT22;58887;51.980;4.464;2023-02-28T01:36:12;4.85;73.93
71184;DHT22;58887;51.980;4.464;2023-02-28T01:38:38;4.89;74.05
71184;DHT22;58887;51.980;4.464;2023-02-28T01:41:07;4.92;73.89
71184;DHT22;58887;51.980;4.464;2023-02-28T01:46:38;4.92;73.68
71184;DHT22;58887;51.980;4.464;2023-02-28T01:49:15;4.91;73.74
71184;DHT22;58887;51.980;4.464;2023-02-28T01:51:50;4.94;73.68
71184;DHT22;58887;51.980;4.464;2023-02-28T01:54:22;4.92;73.74
71184;DHT22;58887;51.980;4.464;2023-02-28T01:56:55;4.92;73.80
71184;DHT22;58887;51.980;4.464;2023-02-28T01:59:54;4.97;73.68
71184;DHT22;58887;51.980;4.464;2023-02-28T02:02:24;4.94;73.81
71184;DHT22;58887;51.980;4.464;2023-02-28T02:04:54;4.94;73.75
71184;DHT22;58887;51.980;4.464;2023-02-28T02:07:21;4.89;73.98
71184;DHT22;58887;51.980;4.464;2023-02-28T02:09:47;4.92;74.12
71184;DHT22;58887;51.980;4.464;2023-02-28T02:12:27;4.94;74.03
71184;DHT22;58887;51.980;4.464;2023-02-28T02:15:14;4.95;74.19
71184;DHT22;58887;51.980;4.464;2023-02-28T02:17:45;4.98;74.28
71184;DHT22;58887;51.980;4.464;2023-02-28T02:20:26;4.89;74.60
71184;DHT22;58887;51.980;4.464;2023-02-28T02:31:46;4.85;75.75
71184;DHT22;58887;51.980;4.464;2023-02-28T02:34:56;4.81;75.85
71184;DHT22;58887;51.980;4.464;2023-02-28T02:37:34;4.75;76.32
71184;DHT22;58887;51.980;4.464;2023-02-28T02:40:17;4.70;76.73
71184;DHT22;58887;51.980;4.464;2023-02-28T02:43:06;4.77;76.78
71184;DHT22;58887;51.980;4.464;2023-02-28T02:45:59;4.83;76.63
71184;DHT22;58887;51.980;4.464;2023-02-28T02:48:32;4.83;76.55
71184;DHT22;58887;51.980;4.464;2023-02-28T02:51:03;4.87;76.29
71184;DHT22;58887;51.980;4.464;2023-02-28T02:53:39;4.87;76.55
71184;DHT22;58887;51.980;4.464;2023-02-28T02:56:09;4.89;76.43
71184;DHT22;58887;51.980;4.464;2023-02-28T02:58:40;4.95;76.42
71184;DHT22;58887;51.980;4.464;2023-02-28T03:01:14;5.02;76.17
71184;DHT22;58887;51.980;4.464;2023-02-28T03:03:41;4.98;76.11
71184;DHT22;58887;51.980;4.464;2023-02-28T03:06:07;4.99;76.24
71184;DHT22;58887;51.980;4.464;2023-02-28T03:08:37;4.98;76.31
71184;DHT22;58887;51.980;4.464;2023-02-28T03:11:12;5.07;76.05
71184;DHT22;58887;51.980;4.464;2023-02-28T03:22:33;5.15;75.68
71184;DHT22;58887;51.980;4.464;2023-02-28T03:25:27;5.21;75.61
71184;DHT22;58887;51.980;4.464;2023-02-28T03:28:16;5.19;75.43
71184;DHT22;58887;51.980;4.464;2023-02-28T03:31:10;5.15;75.74
71184;DHT22;58887;51.980;4.464;2023-02-28T03:33:55;5.16;75.65
71184;DHT22;58887;51.980;4.464;2023-02-28T03:36:30;5.18;75.65
71184;DHT22;58887;51.980;4.464;2023-02-28T03:38:58;5.21;75.80
71184;DHT22;58887;51.980;4.464;2023-02-28T03:41:43;5.25;75.86
71184;DHT22;58887;51.980;4.464;2023-02-28T03:44:42;5.28;75.75
71184;DHT22;58887;51.980;4.464;2023-02-28T03:47:17;5.28;76.03
71184;DHT22;58887;51.980;4.464;2023-02-28T03:49:54;5.28;76.19
71184;DHT22;58887;51.980;4.464;2023-02-28T03:52:27;5.35;76.03
71184;DHT22;58887;51.980;4.464;2023-02-28T03:54:59;5.26;76.15
71184;DHT22;58887;51.980;4.464;2023-02-28T03:57:56;5.29;76.17
71184;DHT22;58887;51.980;4.464;2023-02-28T04:00:31;5.36;76.20
71184;DHT22;58887;51.980;4.464;2023-02-28T04:02:58;5.49;75.91
71184;DHT22;58887;51.980;4.464;2023-02-28T04:05:25;5.46;75.81
71184;DHT22;58887;51.980;4.464;2023-02-28T04:07:52;5.43;75.95
71184;DHT22;58887;51.980;4.464;2023-02-28T04:10:18;5.42;76.26
71184;DHT22;58887;51.980;4.464;2023-02-28T04:12:43;5.47;76.26
71184;DHT22;58887;51.980;4.464;2023-02-28T04:15:09;5.47;76.28
71184;DHT22;58887;51.980;4.464;2023-02-28T04:17:36;5.52;76.19
71184;DHT22;58887;51.980;4.464;2023-02-28T04:20:03;5.52;76.27
71184;DHT22;58887;51.980;4.464;2023-02-28T04:22:34;5.40;76.46
71184;DHT22;58887;51.980;4.464;2023-02-28T04:25:01;5.38;76.77
71184;DHT22;58887;51.980;4.464;2023-02-28T04:27:26;5.34;76.82
71184;DHT22;58887;51.980;4.464;2023-02-28T04:29:53;5.43;76.67
71184;DHT22;58887;51.980;4.464;2023-02-28T04:32:18;5.38;76.77
71184;DHT22;58887;51.980;4.464;2023-02-28T04:34:44;5.39;76.84
71184;DHT22;58887;51.980;4.464;2023-02-28T04:37:09;5.38;76.81
71184;DHT22;58887;51.980;4.464;2023-02-28T04:39:36;5.39;76.72
71184;DHT22;58887;51.980;4.464;2023-02-28T04:42:02;5.38;76.55
71184;DHT22;58887;51.980;4.464;2023-02-28T04:44:28;5.36;76.69
71184;DHT22;58887;51.980;4.464;2023-02-28T04:46:53;5.38;76.34
71184;DHT22;58887;51.980;4.464;2023-02-28T04:49:19;5.40;76.46
71184;DHT22;58887;51.980;4.464;2023-02-28T04:51:44;5.45;76.19
71184;DHT22;58887;51.980;4.464;2023-02-28T04:54:10;5.42;75.81
71184;DHT22;58887;51.980;4.464;2023-02-28T04:56:35;5.36;75.94
71184;DHT22;58887;51.980;4.464;2023-02-28T04:59:01;5.42;75.70
71184;DHT22;58887;51.980;4.464;2023-02-28T05:01:29;5.38;75.61
71184;DHT22;58887;51.980;4.464;2023-02-28T05:03:57;5.29;75.60
71184;DHT22;58887;51.980;4.464;2023-02-28T05:06:25;5.28;75.77
71184;DHT22;58887;51.980;4.464;2023-02-28T05:08:52;5.25;75.71
71184;DHT22;58887;51.980;4.464;2023-02-28T05:11:28;5.22;75.61
71184;DHT22;58887;51.980;4.464;2023-02-28T05:14:04;5.09;75.09
71184;DHT22;58887;51.980;4.464;2023-02-28T05:16:31;5.07;75.57
71184;DHT22;58887;51.980;4.464;2023-02-28T05:18:57;5.07;75.68
71184;DHT22;58887;51.980;4.464;2023-02-28T05:23:51;5.12;74.36
71184;DHT22;58887;51.980;4.464;2023-02-28T05:26:18;5.18;74.29
71184;DHT22;58887;51.980;4.464;2023-02-28T05:28:43;5.25;73.42
71184;DHT22;58887;51.980;4.464;2023-02-28T05:31:11;5.11;73.78
71184;DHT22;58887;51.980;4.464;2023-02-28T05:33:37;5.18;73.34
71184;DHT22;58887;51.980;4.464;2023-02-28T05:36:03;5.11;73.30
71184;DHT22;58887;51.980;4.464;2023-02-28T05:38:29;4.83;73.24
71184;DHT22;58887;51.980;4.464;2023-02-28T05:40:54;4.75;73.88
71184;DHT22;58887;51.980;4.464;2023-02-28T05:43:22;4.88;73.63
71184;DHT22;58887;51.980;4.464;2023-02-28T05:45:48;4.91;73.42
71184;DHT22;58887;51.980;4.464;2023-02-28T05:48:15;4.88;73.62
71184;DHT22;58887;51.980;4.464;2023-02-28T05:50:40;4.89;73.45
71184;DHT22;58887;51.980;4.464;2023-02-28T05:53:08;4.92;73.26
71184;DHT22;58887;51.980;4.464;2023-02-28T05:55:34;4.94;73.46
71184;DHT22;58887;51.980;4.464;2023-02-28T05:58:01;4.97;72.92
71184;DHT22;58887;51.980;4.464;2023-02-28T06:00:26;4.85;73.21
71184;DHT22;58887;51.980;4.464;2023-02-28T06:03:00;4.85;73.20
71184;DHT22;58887;51.980;4.464;2023-02-28T06:05:27;4.74;73.56
71184;DHT22;58887;51.980;4.464;2023-02-28T06:07:54;4.63;73.88
71184;DHT22;58887;51.980;4.464;2023-02-28T06:10:19;4.63;74.00
71184;DHT22;58887;51.980;4.464;2023-02-28T06:12:45;4.73;74.10
71184;DHT22;58887;51.980;4.464;2023-02-28T06:15:15;4.75;74.21
71184;DHT22;58887;51.980;4.464;2023-02-28T06:17:43;4.74;74.02
71184;DHT22;58887;51.980;4.464;2023-02-28T06:20:10;4.74;74.16
71184;DHT22;58887;51.980;4.464;2023-02-28T06:22:39;4.54;74.50
71184;DHT22;58887;51.980;4.464;2023-02-28T06:25:06;4.50;74.92
71184;DHT22;58887;51.980;4.464;2023-02-28T06:27:33;4.30;74.60
71184;DHT22;58887;51.980;4.464;2023-02-28T06:29:59;4.13;74.39
71184;DHT22;58887;51.980;4.464;2023-02-28T06:32:24;4.17;74.16
71184;DHT22;58887;51.980;4.464;2023-02-28T06:34:50;4.25;74.11
71184;DHT22;58887;51.980;4.464;2023-02-28T06:37:17;4.28;73.90
71184;DHT22;58887;51.980;4.464;2023-02-28T06:39:43;4.16;74.19
71184;DHT22;58887;51.980;4.464;2023-02-28T06:42:08;4.13;73.38
71184;DHT22;58887;51.980;4.464;2023-02-28T06:44:34;4.09;72.58
71184;DHT22;58887;51.980;4.464;2023-02-28T06:47:05;3.99;72.23
71184;DHT22;58887;51.980;4.464;2023-02-28T06:49:33;3.99;71.58
71184;DHT22;58887;51.980;4.464;2023-02-28T06:51:59;4.01;71.33
71184;DHT22;58887;51.980;4.464;2023-02-28T06:54:24;4.01;71.24
71184;DHT22;58887;51.980;4.464;2023-02-28T06:56:50;3.92;71.59
71184;DHT22;58887;51.980;4.464;2023-02-28T06:59:16;3.92;71.74
71184;DHT22;58887;51.980;4.464;2023-02-28T07:01:42;3.89;72.54
71184;DHT22;58887;51.980;4.464;2023-02-28T07:04:09;3.79;72.90
71184;DHT22;58887;51.980;4.464;2023-02-28T07:06:34;3.78;73.22
71184;DHT22;58887;51.980;4.464;2023-02-28T07:09:01;3.82;73.51
71184;DHT22;58887;51.980;4.464;2023-02-28T07:11:27;3.82;74.03
71184;DHT22;58887;51.980;4.464;2023-02-28T07:13:55;3.75;74.77
71184;DHT22;58887;51.980;4.464;2023-02-28T07:16:22;3.82;75.13
71184;DHT22;58887;51.980;4.464;2023-02-28T07:18:49;3.65;76.08
71184;DHT22;58887;51.980;4.464;2023-02-28T07:21:15;3.50;77.16
71184;DHT22;58887;51.980;4.464;2023-02-28T07:23:44;3.44;77.83
71184;DHT22;58887;51.980;4.464;2023-02-28T07:26:13;3.28;78.56
71184;DHT22;58887;51.980;4.464;2023-02-28T07:28:42;3.20;79.27
71184;DHT22;58887;51.980;4.464;2023-02-28T07:31:10;3.09;79.66
71184;DHT22;58887;51.980;4.464;2023-02-28T07:33:36;3.09;80.01
71184;DHT22;58887;51.980;4.464;2023-02-28T07:36:04;3.12;80.05
71184;DHT22;58887;51.980;4.464;2023-02-28T07:38:30;3.15;80.03
71184;DHT22;58887;51.980;4.464;2023-02-28T07:40:56;3.13;80.19
71184;DHT22;58887;51.980;4.464;2023-02-28T07:43:21;3.02;80.59
71184;DHT22;58887;51.980;4.464;2023-02-28T07:45:47;2.99;80.54
71184;DHT22;58887;51.980;4.464;2023-02-28T07:48:12;2.95;80.95
71184;DHT22;58887;51.980;4.464;2023-02-28T07:50:38;2.95;81.05
71184;DHT22;58887;51.980;4.464;2023-02-28T07:53:03;2.92;81.12
71184;DHT22;58887;51.980;4.464;2023-02-28T07:55:30;2.91;81.19
71184;DHT22;58887;51.980;4.464;2023-02-28T07:57:57;2.92;81.13
71184;DHT22;58887;51.980;4.464;2023-02-28T08:00:23;2.85;81.24
71184;DHT22;58887;51.980;4.464;2023-02-28T08:02:49;2.88;81.53
71184;DHT22;58887;51.980;4.464;2023-02-28T08:05:14;2.96;81.05
71184;DHT22;58887;51.980;4.464;2023-02-28T08:07:43;2.92;81.25
71184;DHT22;58887;51.980;4.464;2023-02-28T08:10:16;2.88;81.34
71184;DHT22;58887;51.980;4.464;2023-02-28T08:12:44;3.00;81.49
71184;DHT22;58887;51.980;4.464;2023-02-28T08:15:09;3.07;81.14
71184;DHT22;58887;51.980;4.464;2023-02-28T08:17:35;3.05;81.08
71184;DHT22;58887;51.980;4.464;2023-02-28T08:20:01;3.05;81.27
71184;DHT22;58887;51.980;4.464;2023-02-28T08:22:26;3.15;81.12
71184;DHT22;58887;51.980;4.464;2023-02-28T08:24:52;3.07;81.37
71184;DHT22;58887;51.980;4.464;2023-02-28T08:27:17;3.00;81.66
71184;DHT22;58887;51.980;4.464;2023-02-28T08:29:43;3.02;81.58
71184;DHT22;58887;51.980;4.464;2023-02-28T08:32:08;3.09;81.57
71184;DHT22;58887;51.980;4.464;2023-02-28T08:34:34;3.15;81.52
71184;DHT22;58887;51.980;4.464;2023-02-28T08:36:59;3.15;81.37
71184;DHT22;58887;51.980;4.464;2023-02-28T08:39:25;3.10;81.46
71184;DHT22;58887;51.980;4.464;2023-02-28T08:41:51;3.16;81.93
71184;DHT22;58887;51.980;4.464;2023-02-28T08:44:16;3.23;81.92
71184;DHT22;58887;51.980;4.464;2023-02-28T08:46:42;3.17;81.88
71184;DHT22;58887;51.980;4.464;2023-02-28T08:49:10;3.22;81.83
71184;DHT22;58887;51.980;4.464;2023-02-28T08:51:38;3.27;81.87
71184;DHT22;58887;51.980;4.464;2023-02-28T08:54:07;3.40;81.82
71184;DHT22;58887;51.980;4.464;2023-02-28T08:56:33;3.44;81.97
71184;DHT22;58887;51.980;4.464;2023-02-28T08:58:59;3.51;82.04
71184;DHT22;58887;51.980;4.464;2023-02-28T09:01:29;3.51;82.03
71184;DHT22;58887;51.980;4.464;2023-02-28T09:03:55;3.63;81.93
71184;DHT22;58887;51.980;4.464;2023-02-28T09:06:23;3.63;81.80
71184;DHT22;58887;51.980;4.464;2023-02-28T09:08:50;3.63;82.16
71184;DHT22;58887;51.980;4.464;2023-02-28T09:11:16;3.68;82.18
71184;DHT22;58887;51.980;4.464;2023-02-28T09:13:42;3.56;81.68
71184;DHT22;58887;51.980;4.464;2023-02-28T09:16:11;3.73;82.02
71184;DHT22;58887;51.980;4.464;2023-02-28T09:18:38;3.86;82.21
71184;DHT22;58887;51.980;4.464;2023-02-28T09:21:05;3.96;81.77
71184;DHT22;58887;51.980;4.464;2023-02-28T09:23:31;4.01;81.31
71184;DHT22;58887;51.980;4.464;2023-02-28T09:25:56;4.06;81.15
71184;DHT22;58887;51.980;4.464;2023-02-28T09:28:22;4.13;81.07
71184;DHT22;58887;51.980;4.464;2023-02-28T09:30:51;4.23;80.90
71184;DHT22;58887;51.980;4.464;2023-02-28T09:33:18;4.22;80.94
71184;DHT22;58887;51.980;4.464;2023-02-28T09:35:46;4.39;80.93
71184;DHT22;58887;51.980;4.464;2023-02-28T09:38:12;4.50;79.99
71184;DHT22;58887;51.980;4.464;2023-02-28T09:41:00;4.56;79.45
71184;DHT22;58887;51.980;4.464;2023-02-28T09:43:31;4.67;79.11
71184;DHT22;58887;51.980;4.464;2023-02-28T09:48:47;4.85;78.00
71184;DHT22;58887;51.980;4.464;2023-02-28T09:51:44;5.02;78.20
71184;DHT22;58887;51.980;4.464;2023-02-28T09:54:24;5.11;78.01
71184;DHT22;58887;51.980;4.464;2023-02-28T09:56:59;5.09;77.58
71184;DHT22;58887;51.980;4.464;2023-02-28T10:05:05;4.53;77.47
71184;DHT22;58887;51.980;4.464;2023-02-28T10:10:26;4.33;77.18
71184;DHT22;58887;51.980;4.464;2023-02-28T10:12:57;4.37;77.44
71184;DHT22;58887;51.980;4.464;2023-02-28T10:15:27;4.52;77.35
71184;DHT22;58887;51.980;4.464;2023-02-28T10:18:05;4.83;77.59
71184;DHT22;58887;51.980;4.464;2023-02-28T10:20:37;4.77;75.81
71184;DHT22;58887;51.980;4.464;2023-02-28T10:25:38;4.68;74.17
71184;DHT22;58887;51.980;4.464;2023-02-28T10:28:15;4.80;73.95
71184;DHT22;58887;51.980;4.464;2023-02-28T10:30:51;5.28;73.12
71184;DHT22;58887;51.980;4.464;2023-02-28T10:33:32;5.45;71.09
71184;DHT22;58887;51.980;4.464;2023-02-28T10:36:01;5.32;71.72
71184;DHT22;58887;51.980;4.464;2023-02-28T10:38:32;5.11;71.27
71184;DHT22;58887;51.980;4.464;2023-02-28T10:41:11;4.99;72.33
71184;DHT22;58887;51.980;4.464;2023-02-28T10:43:39;5.12;71.70
71184;DHT22;58887;51.980;4.464;2023-02-28T10:51:09;5.78;69.50
71184;DHT22;58887;51.980;4.464;2023-02-28T10:53:52;5.70;67.55
71184;DHT22;58887;51.980;4.464;2023-02-28T10:56:23;6.04;68.91
71184;DHT22;58887;51.980;4.464;2023-02-28T11:04:02;7.18;64.25
71184;DHT22;58887;51.980;4.464;2023-02-28T11:06:33;8.38;60.98
71184;DHT22;58887;51.980;4.464;2023-02-28T11:09:04;10.03;60.07
71184;DHT22;58887;51.980;4.464;2023-02-28T11:11:44;10.83;53.40
71184;DHT22;58887;51.980;4.464;2023-02-28T11:14:40;11.78;50.48
71184;DHT22;58887;51.980;4.464;2023-02-28T11:17:22;12.38;47.89
71184;DHT22;58887;51.980;4.464;2023-02-28T11:19:53;12.81;47.53
71184;DHT22;58887;51.980;4.464;2023-02-28T11:22:23;13.35;43.58
71184;DHT22;58887;51.980;4.464;2023-02-28T11:24:53;12.82;42.25
71184;DHT22;58887;51.980;4.464;2023-02-28T11:30:00;13.63;44.05
71184;DHT22;58887;51.980;4.464;2023-02-28T11:32:30;14.26;41.25
71184;DHT22;58887;51.980;4.464;2023-02-28T11:35:24;12.04;38.02
71184;DHT22;58887;51.980;4.464;2023-02-28T11:37:51;11.99;41.88
71184;DHT22;58887;51.980;4.464;2023-02-28T11:40:35;12.27;38.40
71184;DHT22;58887;51.980;4.464;2023-02-28T11:49:10;10.13;42.39
71184;DHT22;58887;51.980;4.464;2023-02-28T11:51:54;9.81;40.96
71184;DHT22;58887;51.980;4.464;2023-02-28T12:08:47;11.12;40.41
71184;DHT22;58887;51.980;4.464;2023-02-28T12:16:55;14.09;34.54
71184;DHT22;58887;51.980;4.464;2023-02-28T12:20:02;15.15;34.84
71184;DHT22;58887;51.980;4.464;2023-02-28T12:25:42;15.92;31.83
71184;DHT22;58887;51.980;4.464;2023-02-28T12:28:20;15.48;29.86
71184;DHT22;58887;51.980;4.464;2023-02-28T12:30:59;16.07;32.37
71184;DHT22;58887;51.980;4.464;2023-02-28T12:33:34;16.21;29.95
71184;DHT22;58887;51.980;4.464;2023-02-28T12:36:11;16.23;30.13
71184;DHT22;58887;51.980;4.464;2023-02-28T12:38:56;16.91;30.61
71184;DHT22;58887;51.980;4.464;2023-02-28T12:41:43;16.98;29.96
71184;DHT22;58887;51.980;4.464;2023-02-28T12:44:26;16.55;27.71
71184;DHT22;58887;51.980;4.464;2023-02-28T12:47:04;16.61;31.48
71184;DHT22;58887;51.980;4.464;2023-02-28T12:49:58;16.60;30.72
71184;DHT22;58887;51.980;4.464;2023-02-28T12:55:20;16.76;29.12
71184;DHT22;58887;51.980;4.464;2023-02-28T12:58:10;16.35;29.08
71184;DHT22;58887;51.980;4.464;2023-02-28T13:01:01;16.09;29.59
71184;DHT22;58887;51.980;4.464;2023-02-28T13:06:28;16.27;30.14
71184;DHT22;58887;51.980;4.464;2023-02-28T13:09:10;16.92;28.39
71184;DHT22;58887;51.980;4.464;2023-02-28T13:11:46;17.27;26.81
71184;DHT22;58887;51.980;4.464;2023-02-28T13:14:23;16.86;27.12
71184;DHT22;58887;51.980;4.464;2023-02-28T13:24:55;16.64;28.87
71184;DHT22;58887;51.980;4.464;2023-02-28T13:27:37;16.89;28.10
71184;DHT22;58887;51.980;4.464;2023-02-28T13:31:08;16.81;27.52
71184;DHT22;58887;51.980;4.464;2023-02-28T13:38:56;17.44;27.24
71184;DHT22;58887;51.980;4.464;2023-02-28T13:59:48;16.23;28.45
71184;DHT22;58887;51.980;4.464;2023-02-28T14:02:34;16.10;28.56
71184;DHT22;58887;51.980;4.464;2023-02-28T14:05:21;16.71;27.43
71184;DHT22;58887;51.980;4.464;2023-02-28T14:07:54;16.37;28.50
71184;DHT22;58887;51.980;4.464;2023-02-28T14:13:11;16.10;29.18
71184;DHT22;58887;51.980;4.464;2023-02-28T14:16:06;15.87;27.79
71184;DHT22;58887;51.980;4.464;2023-02-28T14:18:35;15.66;30.87
71184;DHT22;58887;51.980;4.464;2023-02-28T14:21:31;15.42;29.46
71184;DHT22;58887;51.980;4.464;2023-02-28T14:27:05;15.55;30.72
71184;DHT22;58887;51.980;4.464;2023-02-28T14:33:11;16.91;28.74
71184;DHT22;58887;51.980;4.464;2023-02-28T14:36:01;16.41;29.17
71184;DHT22;58887;51.980;4.464;2023-02-28T14:38:51;16.44;28.89
71184;DHT22;58887;51.980;4.464;2023-02-28T14:41:43;15.78;28.60
71184;DHT22;58887;51.980;4.464;2023-02-28T14:46:52;16.45;27.85
71184;DHT22;58887;51.980;4.464;2023-02-28T14:49:38;16.27;29.27
71184;DHT22;58887;51.980;4.464;2023-02-28T14:52:22;16.37;27.36
71184;DHT22;58887;51.980;4.464;2023-02-28T14:54:55;16.71;27.68
71184;DHT22;58887;51.980;4.464;2023-02-28T14:57:30;16.67;27.93
71184;DHT22;58887;51.980;4.464;2023-02-28T15:02:44;16.10;27.95
71184;DHT22;58887;51.980;4.464;2023-02-28T15:07:38;16.04;27.72
71184;DHT22;58887;51.980;4.464;2023-02-28T15:10:18;15.92;27.57
71184;DHT22;58887;51.980;4.464;2023-02-28T15:12:59;16.06;27.56
71184;DHT22;58887;51.980;4.464;2023-02-28T15:18:06;16.78;27.08
71184;DHT22;58887;51.980;4.464;2023-02-28T15:20:35;16.44;26.68
71184;DHT22;58887;51.980;4.464;2023-02-28T15:23:08;15.82;27.84
71184;DHT22;58887;51.980;4.464;2023-02-28T15:25:34;15.34;27.07
71184;DHT22;58887;51.980;4.464;2023-02-28T15:28:00;14.40;27.80
71184;DHT22;58887;51.980;4.464;2023-02-28T15:30:32;12.64;30.90
71184;DHT22;58887;51.980;4.464;2023-02-28T15:33:04;11.61;33.70
71184;DHT22;58887;51.980;4.464;2023-02-28T15:35:32;10.22;35.12
71184;DHT22;58887;51.980;4.464;2023-02-28T15:38:28;9.65;35.66
71184;DHT22;58887;51.980;4.464;2023-02-28T15:40:58;9.16;38.69
71184;DHT22;58887;51.980;4.464;2023-02-28T15:43:33;9.19;38.21
71184;DHT22;58887;51.980;4.464;2023-02-28T15:46:12;8.95;37.58
71184;DHT22;58887;51.980;4.464;2023-02-28T15:48:53;8.92;36.85
71184;DHT22;58887;51.980;4.464;2023-02-28T15:51:33;8.57;39.02
71184;DHT22;58887;51.980;4.464;2023-02-28T15:54:27;8.45;39.86
71184;DHT22;58887;51.980;4.464;2023-02-28T15:57:05;8.36;40.75
71184;DHT22;58887;51.980;4.464;2023-02-28T15:59:50;8.23;41.25
71184;DHT22;58887;51.980;4.464;2023-02-28T16:02:21;8.20;41.64
71184;DHT22;58887;51.980;4.464;2023-02-28T16:07:23;7.93;41.29
71184;DHT22;58887;51.980;4.464;2023-02-28T16:09:51;7.96;41.69
71184;DHT22;58887;51.980;4.464;2023-02-28T16:12:27;8.02;43.28
71184;DHT22;58887;51.980;4.464;2023-02-28T16:15:00;7.99;44.68
71184;DHT22;58887;51.980;4.464;2023-02-28T16:17:34;7.75;45.53
71184;DHT22;58887;51.980;4.464;2023-02-28T16:20:00;7.58;46.12
71184;DHT22;58887;51.980;4.464;2023-02-28T16:22:27;7.65;46.84
71184;DHT22;58887;51.980;4.464;2023-02-28T16:24:54;7.56;46.76
71184;DHT22;58887;51.980;4.464;2023-02-28T16:27:36;7.51;46.94
71184;DHT22;58887;51.980;4.464;2023-02-28T16:30:06;7.52;47.49
71184;DHT22;58887;51.980;4.464;2023-02-28T16:32:35;7.34;48.57
71184;DHT22;58887;51.980;4.464;2023-02-28T16:35:03;7.25;49.47
71184;DHT22;58887;51.980;4.464;2023-02-28T16:37:28;7.11;50.40
71184;DHT22;58887;51.980;4.464;2023-02-28T16:39:55;7.08;50.59
71184;DHT22;58887;51.980;4.464;2023-02-28T16:42:27;7.06;51.55
71184;DHT22;58887;51.980;4.464;2023-02-28T16:45:02;6.89;52.11
71184;DHT22;58887;51.980;4.464;2023-02-28T16:47:30;6.97;52.01
71184;DHT22;58887;51.980;4.464;2023-02-28T16:50:01;6.90;51.98
71184;DHT22;58887;51.980;4.464;2023-02-28T16:52:33;6.75;52.44
71184;DHT22;58887;51.980;4.464;2023-02-28T16:54:59;6.71;52.36
71184;DHT22;58887;51.980;4.464;2023-02-28T16:57:25;6.69;52.62
71184;DHT22;58887;51.980;4.464;2023-02-28T16:59:54;6.61;53.29
71184;DHT22;58887;51.980;4.464;2023-02-28T17:02:20;6.66;53.18
71184;DHT22;58887;51.980;4.464;2023-02-28T17:04:48;6.63;53.03
71184;DHT22;58887;51.980;4.464;2023-02-28T17:07:15;6.49;53.36
71184;DHT22;58887;51.980;4.464;2023-02-28T17:09:45;6.49;53.84
71184;DHT22;58887;51.980;4.464;2023-02-28T17:12:13;6.38;54.34
71184;DHT22;58887;51.980;4.464;2023-02-28T17:14:40;6.29;54.76
71184;DHT22;58887;51.980;4.464;2023-02-28T17:17:29;6.22;55.28
71184;DHT22;58887;51.980;4.464;2023-02-28T17:19:56;6.17;55.84
71184;DHT22;58887;51.980;4.464;2023-02-28T17:22:21;6.17;55.62
71184;DHT22;58887;51.980;4.464;2023-02-28T17:24:56;6.10;55.95
71184;DHT22;58887;51.980;4.464;2023-02-28T17:27:25;6.07;56.28
71184;DHT22;58887;51.980;4.464;2023-02-28T17:29:57;5.86;57.34
71184;DHT22;58887;51.980;4.464;2023-02-28T17:32:22;5.93;57.17
71184;DHT22;58887;51.980;4.464;2023-02-28T17:34:52;5.81;57.60
71184;DHT22;58887;51.980;4.464;2023-02-28T17:37:19;5.74;58.20
71184;DHT22;58887;51.980;4.464;2023-02-28T17:39:44;5.71;58.28
71184;DHT22;58887;51.980;4.464;2023-02-28T17:42:18;5.77;58.17
71184;DHT22;58887;51.980;4.464;2023-02-28T17:44:44;5.74;58.45
71184;DHT22;58887;51.980;4.464;2023-02-28T17:47:11;5.65;58.88
71184;DHT22;58887;51.980;4.464;2023-02-28T17:49:37;5.62;59.07
71184;DHT22;58887;51.980;4.464;2023-02-28T17:52:02;5.57;59.14
71184;DHT22;58887;51.980;4.464;2023-02-28T17:54:28;5.52;59.43
71184;DHT22;58887;51.980;4.464;2023-02-28T17:57:04;5.43;59.55
71184;DHT22;58887;51.980;4.464;2023-02-28T17:59:34;5.43;59.64
71184;DHT22;58887;51.980;4.464;2023-02-28T18:02:00;5.38;59.62
71184;DHT22;58887;51.980;4.464;2023-02-28T18:04:26;5.25;59.93
71184;DHT22;58887;51.980;4.464;2023-02-28T18:06:59;5.29;59.92
71184;DHT22;58887;51.980;4.464;2023-02-28T18:09:26;5.26;59.80
71184;DHT22;58887;51.980;4.464;2023-02-28T18:11:54;5.22;59.91
71184;DHT22;58887;51.980;4.464;2023-02-28T18:14:22;5.21;60.07
71184;DHT22;58887;51.980;4.464;2023-02-28T18:16:50;5.15;60.32
71184;DHT22;58887;51.980;4.464;2023-02-28T18:19:16;5.11;60.36
71184;DHT22;58887;51.980;4.464;2023-02-28T18:21:47;4.99;60.67
71184;DHT22;58887;51.980;4.464;2023-02-28T18:24:13;5.01;60.75
71184;DHT22;58887;51.980;4.464;2023-02-28T18:26:41;5.05;60.56
71184;DHT22;58887;51.980;4.464;2023-02-28T18:29:08;5.01;60.84
71184;DHT22;58887;51.980;4.464;2023-02-28T18:31:33;4.99;60.76